sensor_id;sensor_type;location;lat;lon;timestamp;temperature;humidity
22469;DHT22;11401;50.792;4.352;2022-08-21T00:02:18;22.80;55.70
22469;DHT22;11401;50.792;4.352;2022-08-21T00:04:46;22.80;55.80
22469;DHT22;11401;50.792;4.352;2022-08-21T00:07:22;22.80;55.80
22469;DHT22;11401;50.792;4.352;2022-08-21T00:09:51;22.80;55.90
22469;DHT22;11401;50.792;4.352;2022-08-21T00:12:19;22.80;56.00
22469;DHT22;11401;50.792;4.352;2022-08-21T00:14:46;22.70;55.90
22469;DHT22;11401;50.792;4.352;2022-08-21T00:17:14;22.70;56.10
22469;DHT22;11401;50.792;4.352;2022-08-21T00:19:41;22.70;56.00
22469;DHT22;11401;50.792;4.352;2022-08-21T00:22:08;22.70;56.60
22469;DHT22;11401;50.792;4.352;2022-08-21T00:24:35;22.70;56.00
22469;DHT22;11401;50.792;4.352;2022-08-21T00:27:02;22.70;55.90
22469;DHT22;11401;50.792;4.352;2022-08-21T00:29:30;22.70;56.00
22469;DHT22;11401;50.792;4.352;2022-08-21T00:31:57;22.70;56.10
22469;DHT22;11401;50.792;4.352;2022-08-21T00:34:25;22.70;56.00
22469;DHT22;11401;50.792;4.352;2022-08-21T00:36:52;22.60;56.00
22469;DHT22;11401;50.792;4.352;2022-08-21T00:39:19;22.60;56.70
22469;DHT22;11401;50.792;4.352;2022-08-21T00:41:46;22.60;56.00
22469;DHT22;11401;50.792;4.352;2022-08-21T00:44:15;22.60;56.00
22469;DHT22;11401;50.792;4.352;2022-08-21T00:46:42;22.60;56.00
22469;DHT22;11401;50.792;4.352;2022-08-21T00:49:11;22.60;56.20
22469;DHT22;11401;50.792;4.352;2022-08-21T00:51:55;22.60;56.20
22469;DHT22;11401;50.792;4.352;2022-08-21T00:54:26;22.60;56.10
22469;DHT22;11401;50.792;4.352;2022-08-21T00:56:56;22.50;56.10
22469;DHT22;11401;50.792;4.352;2022-08-21T00:59:28;22.50;56.20
22469;DHT22;11401;50.792;4.352;2022-08-21T01:01:56;22.50;56.00
22469;DHT22;11401;50.792;4.352;2022-08-21T01:04:23;22.50;56.20
22469;DHT22;11401;50.792;4.352;2022-08-21T01:06:50;22.50;56.20
22469;DHT22;11401;50.792;4.352;2022-08-21T01:09:18;22.40;56.00
22469;DHT22;11401;50.792;4.352;2022-08-21T01:11:46;22.50;56.20
22469;DHT22;11401;50.792;4.352;2022-08-21T01:14:14;22.50;56.30
22469;DHT22;11401;50.792;4.352;2022-08-21T01:16:44;22.40;56.90
22469;DHT22;11401;50.792;4.352;2022-08-21T01:19:12;22.40;56.20
22469;DHT22;11401;50.792;4.352;2022-08-21T01:21:40;22.40;56.30
22469;DHT22;11401;50.792;4.352;2022-08-21T01:24:10;22.40;56.30
22469;DHT22;11401;50.792;4.352;2022-08-21T01:26:38;22.40;56.40
22469;DHT22;11401;50.792;4.352;2022-08-21T01:29:31;22.40;56.40
22469;DHT22;11401;50.792;4.352;2022-08-21T01:32:05;22.40;55.90
22469;DHT22;11401;50.792;4.352;2022-08-21T01:34:34;22.30;56.40
22469;DHT22;11401;50.792;4.352;2022-08-21T01:37:02;22.30;56.40
22469;DHT22;11401;50.792;4.352;2022-08-21T01:39:30;22.30;56.50
22469;DHT22;11401;50.792;4.352;2022-08-21T01:41:57;22.30;56.50
22469;DHT22;11401;50.792;4.352;2022-08-21T01:44:24;22.30;56.50
22469;DHT22;11401;50.792;4.352;2022-08-21T01:46:52;22.30;56.50
22469;DHT22;11401;50.792;4.352;2022-08-21T01:49:19;22.30;56.50
22469;DHT22;11401;50.792;4.352;2022-08-21T01:51:47;22.20;56.50
22469;DHT22;11401;50.792;4.352;2022-08-21T01:54:14;22.20;56.60
22469;DHT22;11401;50.792;4.352;2022-08-21T01:56:44;22.20;56.60
22469;DHT22;11401;50.792;4.352;2022-08-21T01:59:12;22.20;56.60
22469;DHT22;11401;50.792;4.352;2022-08-21T02:01:39;22.20;56.50
22469;DHT22;11401;50.792;4.352;2022-08-21T02:04:08;22.20;56.60
22469;DHT22;11401;50.792;4.352;2022-08-21T02:06:36;22.20;56.70
22469;DHT22;11401;50.792;4.352;2022-08-21T02:09:04;22.20;56.60
22469;DHT22;11401;50.792;4.352;2022-08-21T02:11:32;22.10;56.70
22469;DHT22;11401;50.792;4.352;2022-08-21T02:13:59;22.10;56.70
22469;DHT22;11401;50.792;4.352;2022-08-21T02:16:26;22.10;56.60
22469;DHT22;11401;50.792;4.352;2022-08-21T02:18:58;22.10;56.60
22469;DHT22;11401;50.792;4.352;2022-08-21T02:21:26;22.10;56.50
22469;DHT22;11401;50.792;4.352;2022-08-21T02:23:53;22.10;56.60
22469;DHT22;11401;50.792;4.352;2022-08-21T02:26:19;22.00;56.70
22469;DHT22;11401;50.792;4.352;2022-08-21T02:28:46;22.10;56.60
22469;DHT22;11401;50.792;4.352;2022-08-21T02:31:14;22.00;56.60
22469;DHT22;11401;50.792;4.352;2022-08-21T02:33:41;22.10;56.50
22469;DHT22;11401;50.792;4.352;2022-08-21T02:36:09;22.00;57.10
22469;DHT22;11401;50.792;4.352;2022-08-21T02:38:38;22.00;56.60
22469;DHT22;11401;50.792;4.352;2022-08-21T02:41:09;22.00;56.60
22469;DHT22;11401;50.792;4.352;2022-08-21T02:43:36;22.00;56.60
22469;DHT22;11401;50.792;4.352;2022-08-21T02:46:04;22.00;56.50
22469;DHT22;11401;50.792;4.352;2022-08-21T02:48:33;22.00;56.50
22469;DHT22;11401;50.792;4.352;2022-08-21T02:51:22;22.00;57.30
22469;DHT22;11401;50.792;4.352;2022-08-21T02:53:49;22.00;56.70
22469;DHT22;11401;50.792;4.352;2022-08-21T02:56:19;22.00;56.60
22469;DHT22;11401;50.792;4.352;2022-08-21T02:58:50;22.00;56.80
22469;DHT22;11401;50.792;4.352;2022-08-21T03:01:19;22.00;56.70
22469;DHT22;11401;50.792;4.352;2022-08-21T03:03:47;21.90;56.60
22469;DHT22;11401;50.792;4.352;2022-08-21T03:06:19;21.90;56.80
22469;DHT22;11401;50.792;4.352;2022-08-21T03:08:47;21.90;56.70
22469;DHT22;11401;50.792;4.352;2022-08-21T03:11:14;21.90;56.60
22469;DHT22;11401;50.792;4.352;2022-08-21T03:13:42;21.90;56.70
22469;DHT22;11401;50.792;4.352;2022-08-21T03:16:09;21.90;56.60
22469;DHT22;11401;50.792;4.352;2022-08-21T03:18:36;21.80;56.60
22469;DHT22;11401;50.792;4.352;2022-08-21T03:21:05;21.90;56.80
22469;DHT22;11401;50.792;4.352;2022-08-21T03:23:32;21.90;56.80
22469;DHT22;11401;50.792;4.352;2022-08-21T03:26:00;21.80;56.60
22469;DHT22;11401;50.792;4.352;2022-08-21T03:28:27;21.80;56.70
22469;DHT22;11401;50.792;4.352;2022-08-21T03:30:54;21.80;57.20
22469;DHT22;11401;50.792;4.352;2022-08-21T03:33:22;21.80;56.60
22469;DHT22;11401;50.792;4.352;2022-08-21T03:35:59;21.80;56.70
22469;DHT22;11401;50.792;4.352;2022-08-21T03:38:28;21.80;56.40
22469;DHT22;11401;50.792;4.352;2022-08-21T03:40:56;21.80;57.30
22469;DHT22;11401;50.792;4.352;2022-08-21T03:43:23;21.80;56.80
22469;DHT22;11401;50.792;4.352;2022-08-21T03:45:50;21.80;56.80
22469;DHT22;11401;50.792;4.352;2022-08-21T03:48:18;21.70;56.70
22469;DHT22;11401;50.792;4.352;2022-08-21T03:50:45;21.70;56.70
22469;DHT22;11401;50.792;4.352;2022-08-21T03:53:14;21.70;56.70
22469;DHT22;11401;50.792;4.352;2022-08-21T03:55:48;21.70;56.90
22469;DHT22;11401;50.792;4.352;2022-08-21T03:58:17;21.70;56.70
22469;DHT22;11401;50.792;4.352;2022-08-21T04:00:45;21.70;56.80
22469;DHT22;11401;50.792;4.352;2022-08-21T04:03:12;21.70;56.80
22469;DHT22;11401;50.792;4.352;2022-08-21T04:05:39;21.70;56.80
22469;DHT22;11401;50.792;4.352;2022-08-21T04:08:07;21.70;56.90
22469;DHT22;11401;50.792;4.352;2022-08-21T04:10:36;21.70;57.00
22469;DHT22;11401;50.792;4.352;2022-08-21T04:13:05;21.70;56.70
22469;DHT22;11401;50.792;4.352;2022-08-21T04:15:32;21.70;56.90
22469;DHT22;11401;50.792;4.352;2022-08-21T04:18:00;21.60;56.90
22469;DHT22;11401;50.792;4.352;2022-08-21T04:20:27;21.60;56.80
22469;DHT22;11401;50.792;4.352;2022-08-21T04:22:54;21.60;57.00
22469;DHT22;11401;50.792;4.352;2022-08-21T04:25:23;21.60;57.10
22469;DHT22;11401;50.792;4.352;2022-08-21T04:27:52;21.60;56.90
22469;DHT22;11401;50.792;4.352;2022-08-21T04:30:19;21.60;56.90
22469;DHT22;11401;50.792;4.352;2022-08-21T04:32:48;21.60;56.80
22469;DHT22;11401;50.792;4.352;2022-08-21T04:35:18;21.60;57.00
22469;DHT22;11401;50.792;4.352;2022-08-21T04:37:46;21.60;57.00
22469;DHT22;11401;50.792;4.352;2022-08-21T04:40:17;21.60;57.00
22469;DHT22;11401;50.792;4.352;2022-08-21T04:42:54;21.60;57.10
22469;DHT22;11401;50.792;4.352;2022-08-21T04:45:26;21.60;56.60
22469;DHT22;11401;50.792;4.352;2022-08-21T04:47:56;21.60;56.70
22469;DHT22;11401;50.792;4.352;2022-08-21T04:50:52;21.60;57.10
22469;DHT22;11401;50.792;4.352;2022-08-21T04:55:55;21.60;57.00
22469;DHT22;11401;50.792;4.352;2022-08-21T04:58:24;21.50;57.00
22469;DHT22;11401;50.792;4.352;2022-08-21T05:00:54;21.50;57.10
22469;DHT22;11401;50.792;4.352;2022-08-21T05:03:22;21.50;57.00
22469;DHT22;11401;50.792;4.352;2022-08-21T05:05:49;21.50;57.20
22469;DHT22;11401;50.792;4.352;2022-08-21T05:08:20;21.50;57.10
22469;DHT22;11401;50.792;4.352;2022-08-21T05:10:48;21.50;56.90
22469;DHT22;11401;50.792;4.352;2022-08-21T05:13:15;21.50;56.90
22469;DHT22;11401;50.792;4.352;2022-08-21T05:15:42;21.50;56.90
22469;DHT22;11401;50.792;4.352;2022-08-21T05:18:09;21.50;56.80
22469;DHT22;11401;50.792;4.352;2022-08-21T05:20:37;21.50;56.80
22469;DHT22;11401;50.792;4.352;2022-08-21T05:23:09;21.60;57.00
22469;DHT22;11401;50.792;4.352;2022-08-21T05:25:36;21.60;56.80
22469;DHT22;11401;50.792;4.352;2022-08-21T05:28:04;21.60;56.90
22469;DHT22;11401;50.792;4.352;2022-08-21T05:30:33;21.60;56.90
22469;DHT22;11401;50.792;4.352;2022-08-21T05:33:02;21.60;57.00
22469;DHT22;11401;50.792;4.352;2022-08-21T05:35:30;21.60;57.00
22469;DHT22;11401;50.792;4.352;2022-08-21T05:37:58;21.60;57.00
22469;DHT22;11401;50.792;4.352;2022-08-21T05:40:26;21.60;57.00
22469;DHT22;11401;50.792;4.352;2022-08-21T05:42:54;21.60;56.90
22469;DHT22;11401;50.792;4.352;2022-08-21T05:45:22;21.60;57.00
22469;DHT22;11401;50.792;4.352;2022-08-21T05:48:14;21.60;57.00
22469;DHT22;11401;50.792;4.352;2022-08-21T05:50:43;21.70;56.90
22469;DHT22;11401;50.792;4.352;2022-08-21T05:53:11;21.70;57.00
22469;DHT22;11401;50.792;4.352;2022-08-21T05:55:39;21.70;57.10
22469;DHT22;11401;50.792;4.352;2022-08-21T05:58:19;21.70;57.00
22469;DHT22;11401;50.792;4.352;2022-08-21T06:00:48;21.70;57.10
22469;DHT22;11401;50.792;4.352;2022-08-21T06:03:24;21.70;57.10
22469;DHT22;11401;50.792;4.352;2022-08-21T06:05:52;21.70;57.00
22469;DHT22;11401;50.792;4.352;2022-08-21T06:08:20;21.80;57.50
22469;DHT22;11401;50.792;4.352;2022-08-21T06:10:48;21.80;57.50
22469;DHT22;11401;50.792;4.352;2022-08-21T06:13:17;21.80;57.50
22469;DHT22;11401;50.792;4.352;2022-08-21T06:15:45;21.80;57.50
22469;DHT22;11401;50.792;4.352;2022-08-21T06:18:12;21.90;57.50
22469;DHT22;11401;50.792;4.352;2022-08-21T06:20:40;21.90;57.40
22469;DHT22;11401;50.792;4.352;2022-08-21T06:23:07;21.90;57.20
22469;DHT22;11401;50.792;4.352;2022-08-21T06:25:35;22.00;57.30
22469;DHT22;11401;50.792;4.352;2022-08-21T06:28:04;22.00;57.20
22469;DHT22;11401;50.792;4.352;2022-08-21T06:30:32;22.00;57.40
22469;DHT22;11401;50.792;4.352;2022-08-21T06:32:59;22.00;57.30
22469;DHT22;11401;50.792;4.352;2022-08-21T06:35:27;22.10;57.30
22469;DHT22;11401;50.792;4.352;2022-08-21T06:37:56;22.10;57.00
22469;DHT22;11401;50.792;4.352;2022-08-21T06:40:25;22.20;57.00
22469;DHT22;11401;50.792;4.352;2022-08-21T06:42:52;22.20;57.00
22469;DHT22;11401;50.792;4.352;2022-08-21T06:45:20;22.20;56.90
22469;DHT22;11401;50.792;4.352;2022-08-21T06:47:47;22.40;57.80
22469;DHT22;11401;50.792;4.352;2022-08-21T06:50:14;22.60;57.70
22469;DHT22;11401;50.792;4.352;2022-08-21T06:52:41;22.70;58.20
22469;DHT22;11401;50.792;4.352;2022-08-21T06:55:09;22.80;57.30
22469;DHT22;11401;50.792;4.352;2022-08-21T06:57:38;22.90;57.00
22469;DHT22;11401;50.792;4.352;2022-08-21T07:00:06;23.00;57.30
22469;DHT22;11401;50.792;4.352;2022-08-21T07:02:34;22.90;55.80
22469;DHT22;11401;50.792;4.352;2022-08-21T07:05:07;22.80;55.80
22469;DHT22;11401;50.792;4.352;2022-08-21T07:07:45;22.80;55.80
22469;DHT22;11401;50.792;4.352;2022-08-21T07:10:13;22.70;55.80
22469;DHT22;11401;50.792;4.352;2022-08-21T07:12:48;22.70;56.10
22469;DHT22;11401;50.792;4.352;2022-08-21T07:15:24;22.60;56.20
22469;DHT22;11401;50.792;4.352;2022-08-21T07:17:51;22.80;57.00
22469;DHT22;11401;50.792;4.352;2022-08-21T07:20:18;22.80;56.10
22469;DHT22;11401;50.792;4.352;2022-08-21T07:22:45;22.90;56.50
22469;DHT22;11401;50.792;4.352;2022-08-21T07:25:12;22.90;56.20
22469;DHT22;11401;50.792;4.352;2022-08-21T07:27:39;23.00;56.40
22469;DHT22;11401;50.792;4.352;2022-08-21T07:30:07;23.10;56.70
22469;DHT22;11401;50.792;4.352;2022-08-21T07:32:34;23.00;56.50
22469;DHT22;11401;50.792;4.352;2022-08-21T07:35:01;23.10;56.60
22469;DHT22;11401;50.792;4.352;2022-08-21T07:37:28;23.10;56.50
22469;DHT22;11401;50.792;4.352;2022-08-21T07:39:55;23.10;57.10
22469;DHT22;11401;50.792;4.352;2022-08-21T07:42:23;23.10;56.70
22469;DHT22;11401;50.792;4.352;2022-08-21T07:44:51;23.20;56.90
22469;DHT22;11401;50.792;4.352;2022-08-21T07:47:22;23.30;56.50
22469;DHT22;11401;50.792;4.352;2022-08-21T07:50:11;23.40;57.00
22469;DHT22;11401;50.792;4.352;2022-08-21T07:52:39;23.50;56.90
22469;DHT22;11401;50.792;4.352;2022-08-21T07:55:08;23.50;56.90
22469;DHT22;11401;50.792;4.352;2022-08-21T07:57:36;23.50;56.80
22469;DHT22;11401;50.792;4.352;2022-08-21T08:00:12;23.60;57.40
22469;DHT22;11401;50.792;4.352;2022-08-21T08:02:40;23.80;57.90
22469;DHT22;11401;50.792;4.352;2022-08-21T08:05:09;23.80;57.40
22469;DHT22;11401;50.792;4.352;2022-08-21T08:07:37;23.90;57.70
22469;DHT22;11401;50.792;4.352;2022-08-21T08:10:06;24.00;57.70
22469;DHT22;11401;50.792;4.352;2022-08-21T08:12:38;24.00;58.10
22469;DHT22;11401;50.792;4.352;2022-08-21T08:15:08;24.00;57.60
22469;DHT22;11401;50.792;4.352;2022-08-21T08:17:36;24.10;57.70
22469;DHT22;11401;50.792;4.352;2022-08-21T08:20:08;24.10;57.30
22469;DHT22;11401;50.792;4.352;2022-08-21T08:22:37;24.20;57.20
22469;DHT22;11401;50.792;4.352;2022-08-21T08:25:05;24.20;57.30
22469;DHT22;11401;50.792;4.352;2022-08-21T08:27:36;24.20;57.10
22469;DHT22;11401;50.792;4.352;2022-08-21T08:30:05;24.20;57.00
22469;DHT22;11401;50.792;4.352;2022-08-21T08:32:33;24.30;57.10
22469;DHT22;11401;50.792;4.352;2022-08-21T08:35:00;24.30;56.90
22469;DHT22;11401;50.792;4.352;2022-08-21T08:37:27;24.30;56.50
22469;DHT22;11401;50.792;4.352;2022-08-21T08:40:00;24.30;56.40
22469;DHT22;11401;50.792;4.352;2022-08-21T08:42:33;24.30;56.70
22469;DHT22;11401;50.792;4.352;2022-08-21T08:45:13;24.30;56.60
22469;DHT22;11401;50.792;4.352;2022-08-21T08:47:46;24.40;56.40
22469;DHT22;11401;50.792;4.352;2022-08-21T08:50:28;24.40;56.10
22469;DHT22;11401;50.792;4.352;2022-08-21T08:53:04;24.40;55.70
22469;DHT22;11401;50.792;4.352;2022-08-21T08:55:40;24.40;55.50
22469;DHT22;11401;50.792;4.352;2022-08-21T08:58:18;24.40;55.30
22469;DHT22;11401;50.792;4.352;2022-08-21T09:00:49;24.40;55.30
22469;DHT22;11401;50.792;4.352;2022-08-21T09:03:16;24.40;55.40
22469;DHT22;11401;50.792;4.352;2022-08-21T09:05:47;24.30;55.40
22469;DHT22;11401;50.792;4.352;2022-08-21T09:11:30;24.40;55.10
22469;DHT22;11401;50.792;4.352;2022-08-21T09:16:53;24.30;55.20
22469;DHT22;11401;50.792;4.352;2022-08-21T09:25:21;24.30;55.70
22469;DHT22;11401;50.792;4.352;2022-08-21T09:27:50;24.40;55.70
22469;DHT22;11401;50.792;4.352;2022-08-21T09:30:20;24.30;56.10
22469;DHT22;11401;50.792;4.352;2022-08-21T09:32:50;24.30;56.20
22469;DHT22;11401;50.792;4.352;2022-08-21T09:35:19;24.30;56.30
22469;DHT22;11401;50.792;4.352;2022-08-21T09:38:00;24.30;56.30
22469;DHT22;11401;50.792;4.352;2022-08-21T09:43:06;24.30;55.80
22469;DHT22;11401;50.792;4.352;2022-08-21T09:45:35;24.40;56.40
22469;DHT22;11401;50.792;4.352;2022-08-21T09:48:18;24.50;56.40
22469;DHT22;11401;50.792;4.352;2022-08-21T09:50:46;24.50;55.90
22469;DHT22;11401;50.792;4.352;2022-08-21T09:53:20;24.50;55.60
22469;DHT22;11401;50.792;4.352;2022-08-21T09:56:05;24.50;56.10
22469;DHT22;11401;50.792;4.352;2022-08-21T09:58:51;24.50;56.00
22469;DHT22;11401;50.792;4.352;2022-08-21T10:01:21;24.50;56.10
22469;DHT22;11401;50.792;4.352;2022-08-21T10:04:02;24.60;56.10
22469;DHT22;11401;50.792;4.352;2022-08-21T10:06:29;24.50;56.20
22469;DHT22;11401;50.792;4.352;2022-08-21T10:09:14;24.60;56.20
22469;DHT22;11401;50.792;4.352;2022-08-21T10:11:57;24.60;56.20
22469;DHT22;11401;50.792;4.352;2022-08-21T10:20:02;24.70;56.30
22469;DHT22;11401;50.792;4.352;2022-08-21T10:22:44;24.70;56.40
22469;DHT22;11401;50.792;4.352;2022-08-21T10:25:23;24.70;56.10
22469;DHT22;11401;50.792;4.352;2022-08-21T10:36:39;24.70;55.50
22469;DHT22;11401;50.792;4.352;2022-08-21T10:39:28;24.70;55.90
22469;DHT22;11401;50.792;4.352;2022-08-21T10:42:28;24.70;55.90
22469;DHT22;11401;50.792;4.352;2022-08-21T10:45:14;24.70;55.40
22469;DHT22;11401;50.792;4.352;2022-08-21T10:47:48;24.70;55.60
22469;DHT22;11401;50.792;4.352;2022-08-21T10:55:35;24.70;55.10
22469;DHT22;11401;50.792;4.352;2022-08-21T10:58:09;24.70;55.60
22469;DHT22;11401;50.792;4.352;2022-08-21T11:03:15;24.70;54.80
22469;DHT22;11401;50.792;4.352;2022-08-21T11:05:55;24.70;55.30
22469;DHT22;11401;50.792;4.352;2022-08-21T11:08:32;24.80;55.00
22469;DHT22;11401;50.792;4.352;2022-08-21T11:11:18;24.70;55.60
22469;DHT22;11401;50.792;4.352;2022-08-21T11:14:00;24.80;55.40
22469;DHT22;11401;50.792;4.352;2022-08-21T11:16:45;24.80;55.40
22469;DHT22;11401;50.792;4.352;2022-08-21T11:19:17;24.80;55.00
22469;DHT22;11401;50.792;4.352;2022-08-21T11:21:52;24.70;55.30
22469;DHT22;11401;50.792;4.352;2022-08-21T11:29:42;24.80;55.80
22469;DHT22;11401;50.792;4.352;2022-08-21T11:40:34;24.80;56.30
22469;DHT22;11401;50.792;4.352;2022-08-21T11:43:15;24.80;56.10
22469;DHT22;11401;50.792;4.352;2022-08-21T11:51:10;24.90;56.40
22469;DHT22;11401;50.792;4.352;2022-08-21T11:56:34;24.80;55.30
22469;DHT22;11401;50.792;4.352;2022-08-21T11:59:08;24.80;55.00
22469;DHT22;11401;50.792;4.352;2022-08-21T12:01:43;24.80;54.70
22469;DHT22;11401;50.792;4.352;2022-08-21T12:04:28;24.80;55.50
22469;DHT22;11401;50.792;4.352;2022-08-21T12:06:56;24.80;55.10
22469;DHT22;11401;50.792;4.352;2022-08-21T12:12:13;24.90;54.90
22469;DHT22;11401;50.792;4.352;2022-08-21T12:14:50;24.90;54.60
22469;DHT22;11401;50.792;4.352;2022-08-21T12:17:24;24.80;55.10
22469;DHT22;11401;50.792;4.352;2022-08-21T12:20:14;24.80;54.50
22469;DHT22;11401;50.792;4.352;2022-08-21T12:22:49;24.90;54.50
22469;DHT22;11401;50.792;4.352;2022-08-21T12:25:19;24.90;55.00
22469;DHT22;11401;50.792;4.352;2022-08-21T12:27:53;24.90;55.20
22469;DHT22;11401;50.792;4.352;2022-08-21T12:30:36;24.90;53.20
22469;DHT22;11401;50.792;4.352;2022-08-21T12:33:33;24.90;53.70
22469;DHT22;11401;50.792;4.352;2022-08-21T12:36:11;24.90;53.80
22469;DHT22;11401;50.792;4.352;2022-08-21T12:38:57;24.90;54.30
22469;DHT22;11401;50.792;4.352;2022-08-21T12:41:34;24.90;54.70
22469;DHT22;11401;50.792;4.352;2022-08-21T12:44:09;25.00;55.00
22469;DHT22;11401;50.792;4.352;2022-08-21T12:46:45;24.90;54.00
22469;DHT22;11401;50.792;4.352;2022-08-21T12:49:26;24.90;53.80
22469;DHT22;11401;50.792;4.352;2022-08-21T12:51:57;24.90;53.70
22469;DHT22;11401;50.792;4.352;2022-08-21T12:54:36;24.90;53.80
22469;DHT22;11401;50.792;4.352;2022-08-21T12:57:06;24.90;54.20
22469;DHT22;11401;50.792;4.352;2022-08-21T12:59:38;24.90;54.30
22469;DHT22;11401;50.792;4.352;2022-08-21T13:02:17;25.00;54.00
22469;DHT22;11401;50.792;4.352;2022-08-21T13:04:46;25.00;54.20
22469;DHT22;11401;50.792;4.352;2022-08-21T13:07:22;24.90;54.20
22469;DHT22;11401;50.792;4.352;2022-08-21T13:09:55;25.00;54.00
22469;DHT22;11401;50.792;4.352;2022-08-21T13:12:23;25.00;54.40
22469;DHT22;11401;50.792;4.352;2022-08-21T13:15:00;25.00;54.20
22469;DHT22;11401;50.792;4.352;2022-08-21T13:17:32;25.00;53.90
22469;DHT22;11401;50.792;4.352;2022-08-21T13:20:24;25.00;53.90
22469;DHT22;11401;50.792;4.352;2022-08-21T13:22:51;25.00;53.90
22469;DHT22;11401;50.792;4.352;2022-08-21T13:25:26;25.00;54.60
22469;DHT22;11401;50.792;4.352;2022-08-21T13:28:05;25.00;55.20
22469;DHT22;11401;50.792;4.352;2022-08-21T13:30:33;25.00;55.20
22469;DHT22;11401;50.792;4.352;2022-08-21T13:33:02;24.90;55.00
22469;DHT22;11401;50.792;4.352;2022-08-21T13:38:32;25.00;54.90
22469;DHT22;11401;50.792;4.352;2022-08-21T13:41:07;24.90;55.50
22469;DHT22;11401;50.792;4.352;2022-08-21T13:43:37;25.00;55.50
22469;DHT22;11401;50.792;4.352;2022-08-21T13:46:14;24.90;55.40
22469;DHT22;11401;50.792;4.352;2022-08-21T13:48:42;25.00;55.20
22469;DHT22;11401;50.792;4.352;2022-08-21T13:51:10;25.00;55.10
22469;DHT22;11401;50.792;4.352;2022-08-21T13:53:47;25.00;55.00
22469;DHT22;11401;50.792;4.352;2022-08-21T13:56:33;25.00;55.10
22469;DHT22;11401;50.792;4.352;2022-08-21T13:59:07;25.00;55.40
22469;DHT22;11401;50.792;4.352;2022-08-21T14:02:12;24.90;55.00
22469;DHT22;11401;50.792;4.352;2022-08-21T14:05:00;25.00;54.30
22469;DHT22;11401;50.792;4.352;2022-08-21T14:07:37;25.00;54.70
22469;DHT22;11401;50.792;4.352;2022-08-21T14:10:17;25.00;55.60
22469;DHT22;11401;50.792;4.352;2022-08-21T14:12:51;24.90;55.30
22469;DHT22;11401;50.792;4.352;2022-08-21T14:15:23;24.90;55.80
22469;DHT22;11401;50.792;4.352;2022-08-21T14:17:51;24.90;54.90
22469;DHT22;11401;50.792;4.352;2022-08-21T14:20:32;24.90;54.20
22469;DHT22;11401;50.792;4.352;2022-08-21T14:23:01;24.90;53.80
22469;DHT22;11401;50.792;4.352;2022-08-21T14:25:49;24.90;53.90
22469;DHT22;11401;50.792;4.352;2022-08-21T14:28:45;25.00;54.70
22469;DHT22;11401;50.792;4.352;2022-08-21T14:31:20;25.10;55.30
22469;DHT22;11401;50.792;4.352;2022-08-21T14:33:48;25.00;55.60
22469;DHT22;11401;50.792;4.352;2022-08-21T14:36:15;25.10;55.60
22469;DHT22;11401;50.792;4.352;2022-08-21T14:38:42;25.00;55.30
22469;DHT22;11401;50.792;4.352;2022-08-21T14:41:18;25.00;55.20
22469;DHT22;11401;50.792;4.352;2022-08-21T14:43:46;25.00;54.20
22469;DHT22;11401;50.792;4.352;2022-08-21T14:46:27;25.00;54.70
22469;DHT22;11401;50.792;4.352;2022-08-21T14:48:55;25.00;54.80
22469;DHT22;11401;50.792;4.352;2022-08-21T14:51:22;25.00;54.90
22469;DHT22;11401;50.792;4.352;2022-08-21T14:53:49;25.00;55.30
22469;DHT22;11401;50.792;4.352;2022-08-21T14:56:16;25.00;55.80
22469;DHT22;11401;50.792;4.352;2022-08-21T14:58:47;25.00;55.60
22469;DHT22;11401;50.792;4.352;2022-08-21T15:01:16;25.00;55.70
22469;DHT22;11401;50.792;4.352;2022-08-21T15:03:45;25.00;55.50
22469;DHT22;11401;50.792;4.352;2022-08-21T15:06:14;25.00;55.10
22469;DHT22;11401;50.792;4.352;2022-08-21T15:08:42;25.00;54.80
22469;DHT22;11401;50.792;4.352;2022-08-21T15:11:14;25.00;54.90
22469;DHT22;11401;50.792;4.352;2022-08-21T15:14:03;25.10;55.10
22469;DHT22;11401;50.792;4.352;2022-08-21T15:16:34;25.00;55.60
22469;DHT22;11401;50.792;4.352;2022-08-21T15:19:02;25.10;56.00
22469;DHT22;11401;50.792;4.352;2022-08-21T15:21:29;25.00;55.80
22469;DHT22;11401;50.792;4.352;2022-08-21T15:23:56;25.10;55.60
22469;DHT22;11401;50.792;4.352;2022-08-21T15:26:23;25.10;55.80
22469;DHT22;11401;50.792;4.352;2022-08-21T15:28:50;25.10;55.10
22469;DHT22;11401;50.792;4.352;2022-08-21T15:31:18;25.00;55.90
22469;DHT22;11401;50.792;4.352;2022-08-21T15:33:45;25.10;55.20
22469;DHT22;11401;50.792;4.352;2022-08-21T15:36:12;25.00;55.50
22469;DHT22;11401;50.792;4.352;2022-08-21T15:38:38;25.00;55.70
22469;DHT22;11401;50.792;4.352;2022-08-21T15:41:06;25.10;55.80
22469;DHT22;11401;50.792;4.352;2022-08-21T15:43:45;25.00;56.10
22469;DHT22;11401;50.792;4.352;2022-08-21T15:46:14;25.10;56.40
22469;DHT22;11401;50.792;4.352;2022-08-21T15:48:42;25.10;56.20
22469;DHT22;11401;50.792;4.352;2022-08-21T15:51:10;25.10;56.40
22469;DHT22;11401;50.792;4.352;2022-08-21T15:53:37;25.10;56.30
22469;DHT22;11401;50.792;4.352;2022-08-21T15:56:20;25.10;56.30
22469;DHT22;11401;50.792;4.352;2022-08-21T15:58:50;25.10;56.10
22469;DHT22;11401;50.792;4.352;2022-08-21T16:01:20;25.00;56.50
22469;DHT22;11401;50.792;4.352;2022-08-21T16:03:50;25.10;56.80
22469;DHT22;11401;50.792;4.352;2022-08-21T16:06:19;25.10;56.40
22469;DHT22;11401;50.792;4.352;2022-08-21T16:09:06;25.10;56.80
22469;DHT22;11401;50.792;4.352;2022-08-21T16:11:33;25.00;56.60
22469;DHT22;11401;50.792;4.352;2022-08-21T16:14:01;25.10;57.50
22469;DHT22;11401;50.792;4.352;2022-08-21T16:16:28;25.10;56.80
22469;DHT22;11401;50.792;4.352;2022-08-21T16:19:00;25.10;56.80
22469;DHT22;11401;50.792;4.352;2022-08-21T16:21:29;25.00;56.70
22469;DHT22;11401;50.792;4.352;2022-08-21T16:23:56;25.00;56.60
22469;DHT22;11401;50.792;4.352;2022-08-21T16:26:23;25.10;56.10
22469;DHT22;11401;50.792;4.352;2022-08-21T16:28:52;25.00;56.20
22469;DHT22;11401;50.792;4.352;2022-08-21T16:31:21;25.10;56.30
22469;DHT22;11401;50.792;4.352;2022-08-21T16:33:52;25.00;55.50
22469;DHT22;11401;50.792;4.352;2022-08-21T16:36:24;25.00;55.30
22469;DHT22;11401;50.792;4.352;2022-08-21T16:38:55;25.00;55.70
22469;DHT22;11401;50.792;4.352;2022-08-21T16:41:24;25.10;55.90
22469;DHT22;11401;50.792;4.352;2022-08-21T16:43:52;25.10;56.00
22469;DHT22;11401;50.792;4.352;2022-08-21T16:46:21;25.10;56.10
22469;DHT22;11401;50.792;4.352;2022-08-21T16:48:48;25.10;56.70
22469;DHT22;11401;50.792;4.352;2022-08-21T16:51:16;25.10;55.80
22469;DHT22;11401;50.792;4.352;2022-08-21T16:53:43;25.10;55.30
22469;DHT22;11401;50.792;4.352;2022-08-21T16:56:12;25.10;54.70
22469;DHT22;11401;50.792;4.352;2022-08-21T16:58:43;25.10;54.50
22469;DHT22;11401;50.792;4.352;2022-08-21T17:01:13;25.10;54.20
22469;DHT22;11401;50.792;4.352;2022-08-21T17:03:44;25.10;54.10